sensor_id;sensor_type;location;lat;lon;timestamp;temperature;humidity
39585;DHT22;25278;53.674;10.014;2022-09-20T03:37:20;7.70;99.90
39585;DHT22;25278;53.674;10.014;2022-09-20T03:42:48;7.50;99.90
39585;DHT22;25278;53.674;10.014;2022-09-20T03:45:41;7.50;99.90
39585;DHT22;25278;53.674;10.014;2022-09-20T03:51:32;7.50;99.90
39585;DHT22;25278;53.674;10.014;2022-09-20T03:54:33;7.50;99.90
39585;DHT22;25278;53.674;10.014;2022-09-20T04:05:17;7.20;99.90
39585;DHT22;25278;53.674;10.014;2022-09-20T04:13:30;7.10;99.90
39585;DHT22;25278;53.674;10.014;2022-09-20T04:16:17;7.10;99.90
39585;DHT22;25278;53.674;10.014;2022-09-20T04:18:54;7.10;99.90
39585;DHT22;25278;53.674;10.014;2022-09-20T04:21:27;7.00;99.90
39585;DHT22;25278;53.674;10.014;2022-09-20T04:26:27;7.00;99.90
39585;DHT22;25278;53.674;10.014;2022-09-20T04:32:12;7.00;99.90
39585;DHT22;25278;53.674;10.014;2022-09-20T04:37:46;7.00;99.90
39585;DHT22;25278;53.674;10.014;2022-09-20T04:43:36;6.80;99.90
39585;DHT22;25278;53.674;10.014;2022-09-20T04:46:28;6.80;99.90
39585;DHT22;25278;53.674;10.014;2022-09-20T04:49:31;6.70;99.90
39585;DHT22;25278;53.674;10.014;2022-09-20T04:58:07;6.70;99.90
39585;DHT22;25278;53.674;10.014;2022-09-20T05:07:17;6.70;99.90
39585;DHT22;25278;53.674;10.014;2022-09-20T05:10:11;6.70;99.90
39585;DHT22;25278;53.674;10.014;2022-09-20T05:13:52;6.70;99.90
39585;DHT22;25278;53.674;10.014;2022-09-20T05:16:01;6.70;99.90
39585;DHT22;25278;53.674;10.014;2022-09-20T05:24:29;6.50;99.90
39585;DHT22;25278;53.674;10.014;2022-09-20T05:27:36;6.50;99.90
39585;DHT22;25278;53.674;10.014;2022-09-20T05:30:11;6.60;99.90
39585;DHT22;25278;53.674;10.014;2022-09-20T05:32:49;6.60;99.90
39585;DHT22;25278;53.674;10.014;2022-09-20T05:41:06;6.80;99.90
39585;DHT22;25278;53.674;10.014;2022-09-20T05:43:46;6.90;99.90
39585;DHT22;25278;53.674;10.014;2022-09-20T05:49:25;6.90;99.90
39585;DHT22;25278;53.674;10.014;2022-09-20T05:52:10;7.00;99.90
39585;DHT22;25278;53.674;10.014;2022-09-20T05:57:31;7.10;99.90
39585;DHT22;25278;53.674;10.014;2022-09-20T06:14:17;7.50;99.90
39585;DHT22;25278;53.674;10.014;2022-09-20T06:17:01;7.50;99.90
39585;DHT22;25278;53.674;10.014;2022-09-20T06:22:37;7.80;99.90
39585;DHT22;25278;53.674;10.014;2022-09-20T06:25:16;8.00;99.90
39585;DHT22;25278;53.674;10.014;2022-09-20T06:27:55;8.20;99.90
39585;DHT22;25278;53.674;10.014;2022-09-20T06:30:33;8.30;99.90
39585;DHT22;25278;53.674;10.014;2022-09-20T06:35:37;8.60;99.90
39585;DHT22;25278;53.674;10.014;2022-09-20T06:41:08;8.80;99.90
39585;DHT22;25278;53.674;10.014;2022-09-20T06:43:54;8.80;99.90
39585;DHT22;25278;53.674;10.014;2022-09-20T06:46:23;9.00;99.90
39585;DHT22;25278;53.674;10.014;2022-09-20T06:48:48;9.10;99.90
39585;DHT22;25278;53.674;10.014;2022-09-20T06:51:14;9.30;99.90
39585;DHT22;25278;53.674;10.014;2022-09-20T06:53:40;9.50;99.90
39585;DHT22;25278;53.674;10.014;2022-09-20T06:56:15;9.60;99.90
39585;DHT22;25278;53.674;10.014;2022-09-20T06:58:42;9.70;99.90
39585;DHT22;25278;53.674;10.014;2022-09-20T07:01:07;9.80;99.90
39585;DHT22;25278;53.674;10.014;2022-09-20T07:03:33;9.90;99.90
39585;DHT22;25278;53.674;10.014;2022-09-20T07:05:58;10.00;99.90
39585;DHT22;25278;53.674;10.014;2022-09-20T07:08:28;10.10;99.90
39585;DHT22;25278;53.674;10.014;2022-09-20T07:10:54;10.30;99.90
39585;DHT22;25278;53.674;10.014;2022-09-20T07:13:19;10.30;99.90
39585;DHT22;25278;53.674;10.014;2022-09-20T07:15:45;10.30;99.90
39585;DHT22;25278;53.674;10.014;2022-09-20T07:18:11;10.30;99.90
39585;DHT22;25278;53.674;10.014;2022-09-20T07:20:36;10.40;99.90
39585;DHT22;25278;53.674;10.014;2022-09-20T07:23:02;10.50;99.90
39585;DHT22;25278;53.674;10.014;2022-09-20T07:25:29;10.50;99.90
39585;DHT22;25278;53.674;10.014;2022-09-20T07:27:55;10.50;99.90
39585;DHT22;25278;53.674;10.014;2022-09-20T07:30:21;10.50;99.90
39585;DHT22;25278;53.674;10.014;2022-09-20T07:32:47;10.60;99.90
39585;DHT22;25278;53.674;10.014;2022-09-20T07:35:13;10.60;99.90
39585;DHT22;25278;53.674;10.014;2022-09-20T07:37:39;10.70;99.90
39585;DHT22;25278;53.674;10.014;2022-09-20T07:40:06;10.80;99.90
39585;DHT22;25278;53.674;10.014;2022-09-20T07:42:32;10.90;99.90
39585;DHT22;25278;53.674;10.014;2022-09-20T07:44:58;11.00;99.90
39585;DHT22;25278;53.674;10.014;2022-09-20T07:47:27;11.10;99.90
39585;DHT22;25278;53.674;10.014;2022-09-20T07:49:55;11.30;99.90
39585;DHT22;25278;53.674;10.014;2022-09-20T07:52:21;11.50;99.90
39585;DHT22;25278;53.674;10.014;2022-09-20T07:54:46;11.50;99.90
39585;DHT22;25278;53.674;10.014;2022-09-20T07:57:14;11.80;99.90
39585;DHT22;25278;53.674;10.014;2022-09-20T07:59:39;11.90;99.90
39585;DHT22;25278;53.674;10.014;2022-09-20T08:02:05;12.00;99.90
39585;DHT22;25278;53.674;10.014;2022-09-20T08:04:30;12.10;99.90
39585;DHT22;25278;53.674;10.014;2022-09-20T08:06:56;12.30;99.90
39585;DHT22;25278;53.674;10.014;2022-09-20T08:09:23;12.40;99.90
39585;DHT22;25278;53.674;10.014;2022-09-20T08:11:48;12.50;99.90
39585;DHT22;25278;53.674;10.014;2022-09-20T08:14:15;12.70;99.90
39585;DHT22;25278;53.674;10.014;2022-09-20T08:16:43;12.70;99.90
39585;DHT22;25278;53.674;10.014;2022-09-20T08:19:14;12.80;99.90
39585;DHT22;25278;53.674;10.014;2022-09-20T08:21:41;13.00;99.90
39585;DHT22;25278;53.674;10.014;2022-09-20T08:24:06;13.30;99.90
39585;DHT22;25278;53.674;10.014;2022-09-20T08:26:32;13.50;99.90
39585;DHT22;25278;53.674;10.014;2022-09-20T08:29:00;13.60;99.90
39585;DHT22;25278;53.674;10.014;2022-09-20T08:31:29;13.70;99.90
39585;DHT22;25278;53.674;10.014;2022-09-20T08:33:58;13.70;99.90
39585;DHT22;25278;53.674;10.014;2022-09-20T08:36:28;13.80;99.90
39585;DHT22;25278;53.674;10.014;2022-09-20T08:38:54;13.90;99.90
39585;DHT22;25278;53.674;10.014;2022-09-20T08:41:28;14.20;99.90
39585;DHT22;25278;53.674;10.014;2022-09-20T08:44:02;14.50;99.90
39585;DHT22;25278;53.674;10.014;2022-09-20T08:46:32;14.70;99.90
39585;DHT22;25278;53.674;10.014;2022-09-20T08:49:02;14.90;99.90
39585;DHT22;25278;53.674;10.014;2022-09-20T08:51:30;15.20;99.90
39585;DHT22;25278;53.674;10.014;2022-09-20T08:53:57;15.10;99.90
39585;DHT22;25278;53.674;10.014;2022-09-20T08:56:25;15.10;99.90
39585;DHT22;25278;53.674;10.014;2022-09-20T08:58:53;15.20;99.90
39585;DHT22;25278;53.674;10.014;2022-09-20T09:01:23;15.30;99.90
39585;DHT22;25278;53.674;10.014;2022-09-20T09:03:51;15.30;99.90
39585;DHT22;25278;53.674;10.014;2022-09-20T09:06:22;15.50;99.90
39585;DHT22;25278;53.674;10.014;2022-09-20T09:08:49;15.70;99.90
39585;DHT22;25278;53.674;10.014;2022-09-20T09:11:19;16.00;99.90
39585;DHT22;25278;53.674;10.014;2022-09-20T09:14:06;16.20;99.90
39585;DHT22;25278;53.674;10.014;2022-09-20T09:16:56;16.30;99.90
39585;DHT22;25278;53.674;10.014;2022-09-20T09:19:27;16.50;99.90
39585;DHT22;25278;53.674;10.014;2022-09-20T09:22:04;16.50;99.90
39585;DHT22;25278;53.674;10.014;2022-09-20T09:24:30;16.50;99.90
39585;DHT22;25278;53.674;10.014;2022-09-20T09:27:07;16.70;99.90
39585;DHT22;25278;53.674;10.014;2022-09-20T09:29:34;17.00;99.90
39585;DHT22;25278;53.674;10.014;2022-09-20T09:32:19;17.10;99.90
39585;DHT22;25278;53.674;10.014;2022-09-20T09:34:45;17.40;99.90
39585;DHT22;25278;53.674;10.014;2022-09-20T09:37:27;17.80;99.90
39585;DHT22;25278;53.674;10.014;2022-09-20T09:40:19;18.10;99.90
39585;DHT22;25278;53.674;10.014;2022-09-20T09:43:00;18.40;99.90
39585;DHT22;25278;53.674;10.014;2022-09-20T09:45:31;18.70;99.90
39585;DHT22;25278;53.674;10.014;2022-09-20T09:48:01;19.00;99.90
39585;DHT22;25278;53.674;10.014;2022-09-20T09:50:32;18.70;99.90
39585;DHT22;25278;53.674;10.014;2022-09-20T09:53:01;18.50;99.90
39585;DHT22;25278;53.674;10.014;2022-09-20T09:58:54;19.20;99.90
39585;DHT22;25278;53.674;10.014;2022-09-20T10:01:43;19.40;99.90
39585;DHT22;25278;53.674;10.014;2022-09-20T10:04:20;18.80;99.90
39585;DHT22;25278;53.674;10.014;2022-09-20T10:06:54;18.30;99.90
39585;DHT22;25278;53.674;10.014;2022-09-20T10:15:20;20.80;99.90
39585;DHT22;25278;53.674;10.014;2022-09-20T10:25:58;24.40;99.90
39585;DHT22;25278;53.674;10.014;2022-09-20T10:36:56;22.80;99.90
39585;DHT22;25278;53.674;10.014;2022-09-20T10:39:32;23.30;99.90
39585;DHT22;25278;53.674;10.014;2022-09-20T10:45:23;24.80;99.90
39585;DHT22;25278;53.674;10.014;2022-09-20T10:48:16;25.70;99.90
39585;DHT22;25278;53.674;10.014;2022-09-20T10:50:52;26.10;99.90
39585;DHT22;25278;53.674;10.014;2022-09-20T10:56:39;26.00;99.90
39585;DHT22;25278;53.674;10.014;2022-09-20T11:04:55;26.70;99.90
39585;DHT22;25278;53.674;10.014;2022-09-20T11:10:20;28.10;99.90
39585;DHT22;25278;53.674;10.014;2022-09-20T11:12:55;27.90;97.50
39585;DHT22;25278;53.674;10.014;2022-09-20T11:15:28;28.00;97.60
39585;DHT22;25278;53.674;10.014;2022-09-20T11:20:43;28.90;97.90
39585;DHT22;25278;53.674;10.014;2022-09-20T11:23:20;29.00;96.00
39585;DHT22;25278;53.674;10.014;2022-09-20T11:25:55;27.30;95.30
39585;DHT22;25278;53.674;10.014;2022-09-20T11:28:26;25.60;96.00
39585;DHT22;25278;53.674;10.014;2022-09-20T11:33:31;26.80;97.10
39585;DHT22;25278;53.674;10.014;2022-09-20T11:36:03;28.20;95.80
39585;DHT22;25278;53.674;10.014;2022-09-20T11:38:40;29.20;94.40
39585;DHT22;25278;53.674;10.014;2022-09-20T11:41:13;30.60;93.90
39585;DHT22;25278;53.674;10.014;2022-09-20T11:43:41;31.40;90.70
39585;DHT22;25278;53.674;10.014;2022-09-20T11:46:12;30.90;87.60
39585;DHT22;25278;53.674;10.014;2022-09-20T11:56:48;22.90;91.50
39585;DHT22;25278;53.674;10.014;2022-09-20T11:59:36;22.50;94.50
39585;DHT22;25278;53.674;10.014;2022-09-20T12:02:11;24.40;92.90
39585;DHT22;25278;53.674;10.014;2022-09-20T12:04:42;27.10;93.50
39585;DHT22;25278;53.674;10.014;2022-09-20T12:09:51;31.00;91.00
39585;DHT22;25278;53.674;10.014;2022-09-20T12:12:37;31.80;90.70
39585;DHT22;25278;53.674;10.014;2022-09-20T12:15:22;32.70;82.00
39585;DHT22;25278;53.674;10.014;2022-09-20T12:28:51;31.70;73.10
39585;DHT22;25278;53.674;10.014;2022-09-20T12:36:22;33.10;76.20
39585;DHT22;25278;53.674;10.014;2022-09-20T12:39:01;32.40;75.60
39585;DHT22;25278;53.674;10.014;2022-09-20T12:41:27;29.80;74.80
39585;DHT22;25278;53.674;10.014;2022-09-20T12:49:40;30.90;75.70
39585;DHT22;25278;53.674;10.014;2022-09-20T12:55:51;33.70;75.40
39585;DHT22;25278;53.674;10.014;2022-09-20T12:58:30;34.80;73.70
39585;DHT22;25278;53.674;10.014;2022-09-20T13:08:59;35.10;63.70
39585;DHT22;25278;53.674;10.014;2022-09-20T13:11:53;34.30;64.60
39585;DHT22;25278;53.674;10.014;2022-09-20T13:19:46;35.60;64.70
39585;DHT22;25278;53.674;10.014;2022-09-20T13:22:34;34.00;62.20
39585;DHT22;25278;53.674;10.014;2022-09-20T13:25:04;30.70;64.70
39585;DHT22;25278;53.674;10.014;2022-09-20T13:27:33;28.30;69.50
39585;DHT22;25278;53.674;10.014;2022-09-20T13:30:29;26.60;69.80
39585;DHT22;25278;53.674;10.014;2022-09-20T13:33:22;26.20;74.90
39585;DHT22;25278;53.674;10.014;2022-09-20T13:35:53;28.80;72.00
39585;DHT22;25278;53.674;10.014;2022-09-20T13:38:26;30.60;66.10
39585;DHT22;25278;53.674;10.014;2022-09-20T13:41:02;30.20;66.40
39585;DHT22;25278;53.674;10.014;2022-09-20T13:43:36;31.50;66.30
39585;DHT22;25278;53.674;10.014;2022-09-20T13:48:32;33.30;65.50
39585;DHT22;25278;53.674;10.014;2022-09-20T13:50:58;32.00;63.20
39585;DHT22;25278;53.674;10.014;2022-09-20T13:53:25;29.30;66.50
39585;DHT22;25278;53.674;10.014;2022-09-20T13:55:51;27.00;67.60
39585;DHT22;25278;53.674;10.014;2022-09-20T13:58:31;25.60;68.50
39585;DHT22;25278;53.674;10.014;2022-09-20T14:01:05;27.30;70.20
39585;DHT22;25278;53.674;10.014;2022-09-20T14:03:34;29.40;68.50
39585;DHT22;25278;53.674;10.014;2022-09-20T14:06:04;31.20;68.30
39585;DHT22;25278;53.674;10.014;2022-09-20T14:08:38;32.70;66.30
39585;DHT22;25278;53.674;10.014;2022-09-20T14:11:17;32.70;64.00
39585;DHT22;25278;53.674;10.014;2022-09-20T14:13:46;33.20;66.20
39585;DHT22;25278;53.674;10.014;2022-09-20T14:16:13;33.60;65.30
39585;DHT22;25278;53.674;10.014;2022-09-20T14:18:41;33.90;60.70
39585;DHT22;25278;53.674;10.014;2022-09-20T14:21:08;33.10;64.00
39585;DHT22;25278;53.674;10.014;2022-09-20T14:23:53;33.50;62.50
39585;DHT22;25278;53.674;10.014;2022-09-20T14:28:45;33.20;62.20
39585;DHT22;25278;53.674;10.014;2022-09-20T14:31:19;33.90;59.50
39585;DHT22;25278;53.674;10.014;2022-09-20T14:33:49;32.50;61.10
39585;DHT22;25278;53.674;10.014;2022-09-20T14:36:20;32.90;63.40
39585;DHT22;25278;53.674;10.014;2022-09-20T14:38:47;33.60;61.50
39585;DHT22;25278;53.674;10.014;2022-09-20T14:41:33;33.90;62.20
39585;DHT22;25278;53.674;10.014;2022-09-20T14:44:00;34.10;60.60
39585;DHT22;25278;53.674;10.014;2022-09-20T14:46:33;34.30;60.50
39585;DHT22;25278;53.674;10.014;2022-09-20T14:49:32;35.20;61.60
39585;DHT22;25278;53.674;10.014;2022-09-20T14:57:38;35.60;59.70
39585;DHT22;25278;53.674;10.014;2022-09-20T15:00:09;35.30;59.00
39585;DHT22;25278;53.674;10.014;2022-09-20T15:02:36;35.80;58.10
39585;DHT22;25278;53.674;10.014;2022-09-20T15:05:05;35.80;57.50
39585;DHT22;25278;53.674;10.014;2022-09-20T15:07:30;34.70;57.20
39585;DHT22;25278;53.674;10.014;2022-09-20T15:10:00;33.10;57.80
39585;DHT22;25278;53.674;10.014;2022-09-20T15:12:25;33.10;59.70
39585;DHT22;25278;53.674;10.014;2022-09-20T15:14:51;33.50;57.70
39585;DHT22;25278;53.674;10.014;2022-09-20T15:17:19;33.30;59.50
39585;DHT22;25278;53.674;10.014;2022-09-20T15:19:45;33.10;57.90
39585;DHT22;25278;53.674;10.014;2022-09-20T15:22:12;33.30;57.70
39585;DHT22;25278;53.674;10.014;2022-09-20T15:24:38;32.40;58.90
39585;DHT22;25278;53.674;10.014;2022-09-20T15:27:04;32.20;58.90
39585;DHT22;25278;53.674;10.014;2022-09-20T15:29:30;32.20;59.00
39585;DHT22;25278;53.674;10.014;2022-09-20T15:31:55;32.30;59.20
39585;DHT22;25278;53.674;10.014;2022-09-20T15:34:21;32.20;58.40
39585;DHT22;25278;53.674;10.014;2022-09-20T15:36:47;32.30;59.20
39585;DHT22;25278;53.674;10.014;2022-09-20T15:39:13;32.90;59.30
39585;DHT22;25278;53.674;10.014;2022-09-20T15:41:39;32.90;58.20
39585;DHT22;25278;53.674;10.014;2022-09-20T15:44:05;32.30;59.10
39585;DHT22;25278;53.674;10.014;2022-09-20T15:46:31;32.40;58.70
39585;DHT22;25278;53.674;10.014;2022-09-20T15:48:58;32.30;60.10
39585;DHT22;25278;53.674;10.014;2022-09-20T15:51:25;32.40;61.90
39585;DHT22;25278;53.674;10.014;2022-09-20T15:54:05;32.50;59.20
39585;DHT22;25278;53.674;10.014;2022-09-20T15:56:34;32.70;57.70
39585;DHT22;25278;53.674;10.014;2022-09-20T15:59:04;33.20;58.10
39585;DHT22;25278;53.674;10.014;2022-09-20T16:01:32;32.60;58.30
39585;DHT22;25278;53.674;10.014;2022-09-20T16:03:58;32.10;58.70
39585;DHT22;25278;53.674;10.014;2022-09-20T16:06:24;31.90;60.60
39585;DHT22;25278;53.674;10.014;2022-09-20T16:08:50;32.10;59.80
39585;DHT22;25278;53.674;10.014;2022-09-20T16:11:18;31.90;59.10
39585;DHT22;25278;53.674;10.014;2022-09-20T16:13:46;32.10;58.80
39585;DHT22;25278;53.674;10.014;2022-09-20T16:16:11;31.50;58.50
39585;DHT22;25278;53.674;10.014;2022-09-20T16:18:38;30.30;58.60
39585;DHT22;25278;53.674;10.014;2022-09-20T16:21:23;28.30;59.50
39585;DHT22;25278;53.674;10.014;2022-09-20T16:23:51;26.50;64.10
39585;DHT22;25278;53.674;10.014;2022-09-20T16:26:18;25.40;64.90
39585;DHT22;25278;53.674;10.014;2022-09-20T16:28:44;24.50;66.60
39585;DHT22;25278;53.674;10.014;2022-09-20T16:31:44;23.90;69.30
39585;DHT22;25278;53.674;10.014;2022-09-20T16:34:34;23.10;71.40
39585;DHT22;25278;53.674;10.014;2022-09-20T16:37:05;22.30;73.50
39585;DHT22;25278;53.674;10.014;2022-09-20T16:39:32;21.40;73.30
39585;DHT22;25278;53.674;10.014;2022-09-20T16:42:03;21.00;74.20
39585;DHT22;25278;53.674;10.014;2022-09-20T16:44:34;20.70;76.20
39585;DHT22;25278;53.674;10.014;2022-09-20T16:47:00;20.20;78.30
39585;DHT22;25278;53.674;10.014;2022-09-20T16:49:26;19.60;80.20
39585;DHT22;25278;53.674;10.014;2022-09-20T16:51:52;19.30;81.20
39585;DHT22;25278;53.674;10.014;2022-09-20T16:54:18;18.90;82.00
39585;DHT22;25278;53.674;10.014;2022-09-20T16:56:48;18.60;84.10
39585;DHT22;25278;53.674;10.014;2022-09-20T16:59:16;18.20;85.60
39585;DHT22;25278;53.674;10.014;2022-09-20T17:01:42;17.70;86.90
39585;DHT22;25278;53.674;10.014;2022-09-20T17:04:09;17.40;88.20
39585;DHT22;25278;53.674;10.014;2022-09-20T17:06:37;17.10;90.10
39585;DHT22;25278;53.674;10.014;2022-09-20T17:09:04;17.00;91.10
39585;DHT22;25278;53.674;10.014;2022-09-20T17:11:33;16.80;91.90
39585;DHT22;25278;53.674;10.014;2022-09-20T17:13:59;16.70;93.60
39585;DHT22;25278;53.674;10.014;2022-09-20T17:16:31;16.60;94.80
39585;DHT22;25278;53.674;10.014;2022-09-20T17:19:06;16.50;96.70
39585;DHT22;25278;53.674;10.014;2022-09-20T17:21:33;16.30;96.70
39585;DHT22;25278;53.674;10.014;2022-09-20T17:24:00;16.00;97.80
39585;DHT22;25278;53.674;10.014;2022-09-20T17:26:29;15.90;99.90
39585;DHT22;25278;53.674;10.014;2022-09-20T17:28:58;15.70;99.90
39585;DHT22;25278;53.674;10.014;2022-09-20T17:31:26;15.50;99.90
39585;DHT22;25278;53.674;10.014;2022-09-20T17:33:57;15.30;99.90
39585;DHT22;25278;53.674;10.014;2022-09-20T17:36:28;15.20;99.90
39585;DHT22;25278;53.674;10.014;2022-09-20T17:38:56;15.10;99.90
39585;DHT22;25278;53.674;10.014;2022-09-20T17:41:23;15.00;99.90
39585;DHT22;25278;53.674;10.014;2022-09-20T17:43:53;14.80;99.90
39585;DHT22;25278;53.674;10.014;2022-09-20T17:46:21;14.60;99.90
39585;DHT22;25278;53.674;10.014;2022-09-20T17:48:51;14.50;99.90
39585;DHT22;25278;53.674;10.014;2022-09-20T17:51:20;14.30;99.90
39585;DHT22;25278;53.674;10.014;2022-09-20T17:53:46;14.10;99.90
39585;DHT22;25278;53.674;10.014;2022-09-20T17:56:13;13.90;99.90
39585;DHT22;25278;53.674;10.014;2022-09-20T17:58:39;13.90;99.90
39585;DHT22;25278;53.674;10.014;2022-09-20T18:01:11;13.70;99.90
39585;DHT22;25278;53.674;10.014;2022-09-20T18:03:43;13.50;99.90
39585;DHT22;25278;53.674;10.014;2022-09-20T18:06:12;13.40;99.90
39585;DHT22;25278;53.674;10.014;2022-09-20T18:08:38;13.10;99.90
39585;DHT22;25278;53.674;10.014;2022-09-20T18:11:04;13.10;99.90
39585;DHT22;25278;53.674;10.014;2022-09-20T18:13:30;12.90;99.90
39585;DHT22;25278;53.674;10.014;2022-09-20T18:15:56;12.80;99.90
39585;DHT22;25278;53.674;10.014;2022-09-20T18:18:23;12.80;99.90
39585;DHT22;25278;53.674;10.014;2022-09-20T18:20:48;12.60;99.90
39585;DHT22;25278;53.674;10.014;2022-09-20T18:23:14;12.60;99.90
39585;DHT22;25278;53.674;10.014;2022-09-20T18:25:40;12.50;99.90
39585;DHT22;25278;53.674;10.014;2022-09-20T18:28:24;12.40;99.90
39585;DHT22;25278;53.674;10.014;2022-09-20T18:31:02;12.20;99.90
39585;DHT22;25278;53.674;10.014;2022-09-20T18:33:29;12.20;99.90
39585;DHT22;25278;53.674;10.014;2022-09-20T18:35:59;12.10;99.90
39585;DHT22;25278;53.674;10.014;2022-09-20T18:38:25;12.00;99.90
39585;DHT22;25278;53.674;10.014;2022-09-20T18:40:57;11.90;99.90
39585;DHT22;25278;53.674;10.014;2022-09-20T18:43:25;11.80;99.90
39585;DHT22;25278;53.674;10.014;2022-09-20T18:45:51;11.70;99.90
39585;DHT22;25278;53.674;10.014;2022-09-20T18:48:19;11.60;99.90
39585;DHT22;25278;53.674;10.014;2022-09-20T18:51:03;11.50;99.90
39585;DHT22;25278;53.674;10.014;2022-09-20T18:53:31;11.40;99.90
39585;DHT22;25278;53.674;10.014;2022-09-20T18:56:24;11.40;99.90
39585;DHT22;25278;53.674;10.014;2022-09-20T18:58:54;11.30;99.90
39585;DHT22;25278;53.674;10.014;2022-09-20T19:20:47;10.50;99.90
39585;DHT22;25278;53.674;10.014;2022-09-20T19:26:20;10.60;99.90
39585;DHT22;25278;53.674;10.014;2022-09-20T19:28:51;10.50;99.90
39585;DHT22;25278;53.674;10.014;2022-09-20T19:33:46;10.50;99.90
39585;DHT22;25278;53.674;10.014;2022-09-20T19:36:14;10.60;99.90
39585;DHT22;25278;53.674;10.014;2022-09-20T19:38:47;10.60;99.90
39585;DHT22;25278;53.674;10.014;2022-09-20T19:47:20;10.40;99.90
39585;DHT22;25278;53.674;10.014;2022-09-20T19:50:12;10.40;99.90
39585;DHT22;25278;53.674;10.014;2022-09-20T19:52:41;10.30;99.90
39585;DHT22;25278;53.674;10.014;2022-09-20T19:55:10;10.30;99.90
39585;DHT22;25278;53.674;10.014;2022-09-20T19:57:44;10.20;99.90
39585;DHT22;25278;53.674;10.014;2022-09-20T20:00:16;10.20;99.90
39585;DHT22;25278;53.674;10.014;2022-09-20T20:02:43;10.20;99.90
39585;DHT22;25278;53.674;10.014;2022-09-20T20:05:13;10.20;99.90
39585;DHT22;25278;53.674;10.014;2022-09-20T20:13:43;10.00;99.90
39585;DHT22;25278;53.674;10.014;2022-09-20T20:16:38;10.00;99.90
39585;DHT22;25278;53.674;10.014;2022-09-20T20:22:26;10.00;99.90
39585;DHT22;25278;53.674;10.014;2022-09-20T20:24:56;9.90;99.90
39585;DHT22;25278;53.674;10.014;2022-09-20T20:27:24;9.80;99.90
39585;DHT22;25278;53.674;10.014;2022-09-20T20:30:01;9.80;99.90
39585;DHT22;25278;53.674;10.014;2022-09-20T20:32:27;9.80;99.90
39585;DHT22;25278;53.674;10.014;2022-09-20T20:34:52;9.80;99.90
39585;DHT22;25278;53.674;10.014;2022-09-20T20:37:18;9.70;99.90
39585;DHT22;25278;53.674;10.014;2022-09-20T20:39:44;9.70;99.90
39585;DHT22;25278;53.674;10.014;2022-09-20T20:42:09;9.70;99.90
39585;DHT22;25278;53.674;10.014;2022-09-20T20:44:36;9.70;99.90
39585;DHT22;25278;53.674;10.014;2022-09-20T20:47:03;9.50;99.90
39585;DHT22;25278;53.674;10.014;2022-09-20T20:49:29;9.50;99.90
39585;DHT22;25278;53.674;10.014;2022-09-20T20:51:54;9.50;99.90
39585;DHT22;25278;53.674;10.014;2022-09-20T20:54:24;9.50;99.90
39585;DHT22;25278;53.674;10.014;2022-09-20T20:56:49;9.60;99.90
39585;DHT22;25278;53.674;10.014;2022-09-20T20:59:15;9.40;99.90
39585;DHT22;25278;53.674;10.014;2022-09-20T21:01:42;9.40;99.90
39585;DHT22;25278;53.674;10.014;2022-09-20T21:04:10;9.40;99.90
39585;DHT22;25278;53.674;10.014;2022-09-20T21:06:37;9.40;99.90
39585;DHT22;25278;53.674;10.014;2022-09-20T21:09:05;9.30;99.90
39585;DHT22;25278;53.674;10.014;2022-09-20T21:11:34;9.20;99.90
39585;DHT22;25278;53.674;10.014;2022-09-20T21:14:01;9.20;99.90
39585;DHT22;25278;53.674;10.014;2022-09-20T21:16:29;9.20;99.90
39585;DHT22;25278;53.674;10.014;2022-09-20T21:18:55;9.20;99.90
39585;DHT22;25278;53.674;10.014;2022-09-20T21:21:27;9.20;99.90
39585;DHT22;25278;53.674;10.014;2022-09-20T21:23:55;9.10;99.90
39585;DHT22;25278;53.674;10.014;2022-09-20T21:26:22;9.00;99.90
39585;DHT22;25278;53.674;10.014;2022-09-20T21:28:52;8.90;99.90
39585;DHT22;25278;53.674;10.014;2022-09-20T21:31:20;8.90;99.90
39585;DHT22;25278;53.674;10.014;2022-09-20T21:33:46;8.90;99.90
39585;DHT22;25278;53.674;10.014;2022-09-20T21:38:39;8.90;99.90
39585;DHT22;25278;53.674;10.014;2022-09-20T21:41:10;8.90;99.90
39585;DHT22;25278;53.674;10.014;2022-09-20T21:43:41;8.90;99.90
39585;DHT22;25278;53.674;10.014;2022-09-20T21:46:15;8.90;99.90
39585;DHT22;25278;53.674;10.014;2022-09-20T21:48:45;8.90;99.90
39585;DHT22;25278;53.674;10.014;2022-09-20T21:51:13;8.90;99.90
39585;DHT22;25278;53.674;10.014;2022-09-20T21:53:39;8.90;99.90
39585;DHT22;25278;53.674;10.014;2022-09-20T21:56:10;8.80;99.90
39585;DHT22;25278;53.674;10.014;2022-09-20T21:58:36;8.80;99.90
39585;DHT22;25278;53.674;10.014;2022-09-20T22:03:38;8.70;99.90
39585;DHT22;25278;53.674;10.014;2022-09-20T22:06:25;8.60;99.90
39585;DHT22;25278;53.674;10.014;2022-09-20T22:08:52;8.50;99.90
39585;DHT22;25278;53.674;10.014;2022-09-20T22:11:19;8.50;99.90
39585;DHT22;25278;53.674;10.014;2022-09-20T22:13:47;8.50;99.90
39585;DHT22;25278;53.674;10.014;2022-09-20T22:16:16;8.60;99.90
39585;DHT22;25278;53.674;10.014;2022-09-20T22:18:42;8.60;99.90
39585;DHT22;25278;53.674;10.014;2022-09-20T22:21:17;8.60;99.90
39585;DHT22;25278;53.674;10.014;2022-09-20T22:23:44;8.60;99.90
39585;DHT22;25278;53.674;10.014;2022-09-20T22:26:17;8.60;99.90
39585;DHT22;25278;53.674;10.014;2022-09-20T22:28:48;8.60;99.90
39585;DHT22;25278;53.674;10.014;2022-09-20T22:33:52;8.50;99.90
39585;DHT22;25278;53.674;10.014;2022-09-20T22:36:31;8.40;99.90
